Terminal Aerodrome Forecast
Issued by NWS Bismarck, ND

Home | Current Version | Previous Version | Text Only | Print | Product List | Glossary Off
Versions: 1 2 3 4 5 6 7 8 9 10 11 12 13 14 15 16 17 18 19 20 21 22 23 24 25 26 27 28

000
FTUS43 KBIS 280700 AAA
TAFBIS
TAF AMD
KBIS 280731Z 2808/2906 09006KT P6SM BKN004
      TEMPO 2808/2812 1SM BR OVC004
     FM281400 14007KT P6SM SCT011
     FM281700 17013KT P6SM SCT190
     FM281900 18019G28KT P6SM SCT240=

USA.gov is the U.S. government's official web portal to all federal, state and local government web resources and services.